createdAt,value
2022-11-20T00:00:00.843Z,98.63
2022-11-20T00:02:30.436Z,97.85
2022-11-20T00:04:59.947Z,97.08
2022-11-20T00:07:29.548Z,96.14
2022-11-20T00:10:00.495Z,96.08
2022-11-20T00:12:31.072Z,96.17
2022-11-20T00:15:01.285Z,95.42
2022-11-20T00:17:31.238Z,96.06
2022-11-20T00:20:01.747Z,96.11
2022-11-20T00:22:31.192Z,96.01
2022-11-20T00:25:02.069Z,95.32
2022-11-20T00:27:31.572Z,95.70
2022-11-20T00:30:01.122Z,95.07
2022-11-20T00:32:31.438Z,95.31
2022-11-20T00:35:00.967Z,95.20
2022-11-20T00:37:30.595Z,94.42
2022-11-20T00:40:00.111Z,94.25
2022-11-20T00:42:32.044Z,93.42
2022-11-20T00:45:01.740Z,93.53
2022-11-20T00:47:31.331Z,92.34
2022-11-20T00:50:00.953Z,92.15
2022-11-20T00:52:30.527Z,91.87
2022-11-20T00:55:00.079Z,91.81
2022-11-20T00:57:30.964Z,91.18
2022-11-20T01:00:00.430Z,90.82
2022-11-20T01:02:29.916Z,90.92
2022-11-20T01:04:59.702Z,90.72
2022-11-20T01:07:29.401Z,90.86
2022-11-20T01:09:58.966Z,91.08
2022-11-20T01:12:32.130Z,90.61
2022-11-20T01:15:02.039Z,90.05
2022-11-20T01:17:33.067Z,89.90
2022-11-20T01:20:02.633Z,90.38
2022-11-20T01:22:32.209Z,90.90
2022-11-20T01:25:01.842Z,90.93
2022-11-20T01:27:32.786Z,90.74
2022-11-20T01:30:02.262Z,90.92
2022-11-20T01:32:31.753Z,90.81
2022-11-20T01:35:01.506Z,90.19
2022-11-20T01:37:31.139Z,90.36
2022-11-20T01:40:00.662Z,90.53
2022-11-20T01:42:47.300Z,90.70
2022-11-20T01:45:35.153Z,90.14
2022-11-20T01:48:06.640Z,90.01
2022-11-20T01:50:36.472Z,89.93
2022-11-20T01:53:07.289Z,90.52
2022-11-20T01:55:38.561Z,90.63
2022-11-20T01:58:08.363Z,90.70
2022-11-20T02:00:37.861Z,90.07
2022-11-20T02:03:11.228Z,90.14
2022-11-20T02:05:43.939Z,90.25
2022-11-20T02:08:14.701Z,90.31
2022-11-20T02:10:44.250Z,90.18
2022-11-20T02:13:32.986Z,90.34
2022-11-20T02:16:03.191Z,89.74
2022-11-20T02:18:34.239Z,89.92
2022-11-20T02:21:08.070Z,89.71
2022-11-20T02:23:40.472Z,89.10
2022-11-20T02:26:13.828Z,89.61
2022-11-20T02:28:43.741Z,89.39
2022-11-20T02:31:13.237Z,89.27
2022-11-20T02:33:42.812Z,89.68
2022-11-20T02:36:13.933Z,89.65
2022-11-20T02:38:44.982Z,89.72
2022-11-20T02:41:15.923Z,89.43
2022-11-20T02:43:45.419Z,88.32
2022-11-20T02:46:14.987Z,88.71
2022-11-20T02:48:44.938Z,89.08
2022-11-20T02:51:14.432Z,89.42
2022-11-20T02:53:44.040Z,89.79
2022-11-20T02:56:13.528Z,89.06
2022-11-20T02:58:44.430Z,88.99
2022-11-20T03:01:13.988Z,89.03
2022-11-20T03:03:43.640Z,89.01
2022-11-20T03:06:13.235Z,89.40
2022-11-20T03:08:42.754Z,89.57
2022-11-20T03:11:12.272Z,89.91
2022-11-20T03:13:42.345Z,89.08
2022-11-20T03:16:14.841Z,88.04
2022-11-20T03:18:44.561Z,88.79
2022-11-20T03:21:14.737Z,89.00
2022-11-20T03:23:44.567Z,89.29
2022-11-20T03:26:15.261Z,89.32
2022-11-20T03:28:47.897Z,88.84
2022-11-20T03:31:19.658Z,89.33
2022-11-20T03:33:49.467Z,89.58
2022-11-20T03:36:20.014Z,89.81
2022-11-20T03:38:50.096Z,89.94
2022-11-20T03:41:20.633Z,89.76
2022-11-20T03:43:50.783Z,90.29
2022-11-20T03:46:21.984Z,90.46
2022-11-20T03:48:52.253Z,90.33
2022-11-20T03:51:22.983Z,90.19
2022-11-20T03:53:53.812Z,90.94
2022-11-20T03:56:24.895Z,90.68
2022-11-20T03:58:54.532Z,90.45
2022-11-20T04:01:26.149Z,89.69
2022-11-20T04:03:56.700Z,90.36
2022-11-20T04:06:27.342Z,90.50
2022-11-20T04:08:57.215Z,90.71
2022-11-20T04:11:27.722Z,90.45
2022-11-20T04:13:58.932Z,89.80
2022-11-20T04:16:31.344Z,90.24
2022-11-20T04:19:01.906Z,89.48
2022-11-20T04:21:31.629Z,89.63
2022-11-20T04:24:01.168Z,90.42
2022-11-20T04:26:31.862Z,89.62
2022-11-20T04:29:02.709Z,90.26
2022-11-20T04:31:34.574Z,90.42
2022-11-20T04:34:05.525Z,90.76
2022-11-20T04:36:35.393Z,90.24
2022-11-20T04:39:06.008Z,90.47
2022-11-20T04:41:36.846Z,91.00
2022-11-20T04:44:07.513Z,90.31
2022-11-20T04:46:39.541Z,90.46
2022-11-20T04:49:09.698Z,90.58
2022-11-20T04:51:39.340Z,90.44
2022-11-20T04:54:08.884Z,90.08
2022-11-20T04:56:38.884Z,90.26
2022-11-20T04:59:08.451Z,90.32
2022-11-20T05:01:39.512Z,90.54
2022-11-20T05:04:09.504Z,90.39
2022-11-20T05:06:39.040Z,90.85
2022-11-20T05:09:08.660Z,90.51
2022-11-20T05:11:38.279Z,90.51
2022-11-20T05:14:08.561Z,90.20
2022-11-20T05:16:40.206Z,90.77
2022-11-20T05:19:09.960Z,90.72
2022-11-20T05:21:39.433Z,90.58
2022-11-20T05:24:09.128Z,90.60
2022-11-20T05:26:38.654Z,90.94
2022-11-20T05:29:08.411Z,90.61
2022-11-20T05:31:38.296Z,90.70
2022-11-20T05:34:09.352Z,90.48
2022-11-20T05:36:38.869Z,90.58
2022-11-20T05:39:08.611Z,90.34
2022-11-20T05:41:38.060Z,90.41
2022-11-20T05:44:07.634Z,90.39
2022-11-20T05:46:37.078Z,90.56
2022-11-20T05:49:06.547Z,90.76
2022-11-20T05:51:37.513Z,90.38
2022-11-20T05:54:06.980Z,90.81
2022-11-20T05:56:36.993Z,90.86
2022-11-20T05:59:06.532Z,90.65
2022-11-20T06:01:37.118Z,90.43
2022-11-20T06:04:06.812Z,90.78
2022-11-20T06:06:37.733Z,90.34
2022-11-20T06:09:07.292Z,90.04
2022-11-20T06:11:37.432Z,89.85
2022-11-20T06:14:07.084Z,89.03
2022-11-20T06:16:36.639Z,88.62
2022-11-20T06:19:06.195Z,88.36
2022-11-20T06:21:37.292Z,89.00
2022-11-20T06:24:07.436Z,89.04
2022-11-20T06:26:37.159Z,88.05
2022-11-20T06:29:06.837Z,88.53
2022-11-20T06:31:38.736Z,88.66
2022-11-20T06:34:08.849Z,88.46
2022-11-20T06:36:39.950Z,87.81
2022-11-20T06:39:09.384Z,88.47
2022-11-20T06:41:39.161Z,87.99
2022-11-20T06:44:08.810Z,87.20
2022-11-20T06:46:38.522Z,87.59
2022-11-20T06:49:08.118Z,87.67
2022-11-20T06:51:37.829Z,87.63
2022-11-20T06:54:08.958Z,87.34
2022-11-20T06:56:38.475Z,86.99
2022-11-20T06:59:08.364Z,87.46
2022-11-20T07:01:38.100Z,87.57
2022-11-20T07:04:07.558Z,87.34
2022-11-20T07:06:37.208Z,86.85
2022-11-20T07:09:12.607Z,86.86
2022-11-20T07:11:43.287Z,86.19
2022-11-20T07:14:13.320Z,86.81
2022-11-20T07:16:43.325Z,87.12
2022-11-20T07:19:12.867Z,87.12
2022-11-20T07:21:42.346Z,86.88
2022-11-20T07:24:13.240Z,87.01
2022-11-20T07:26:43.007Z,87.07
2022-11-20T07:29:12.539Z,86.77
2022-11-20T07:31:42.054Z,86.74
2022-11-20T07:34:11.605Z,86.98
2022-11-20T07:36:41.429Z,86.80
2022-11-20T07:39:11.286Z,86.78
2022-11-20T07:41:42.432Z,86.58
2022-11-20T07:44:12.176Z,86.44
2022-11-20T07:46:41.753Z,86.14
2022-11-20T07:49:11.297Z,85.72
2022-11-20T07:51:42.080Z,85.54
2022-11-20T07:54:11.627Z,85.79
2022-11-20T07:56:42.556Z,85.67
2022-11-20T07:59:12.844Z,85.64
2022-11-20T08:01:42.566Z,85.13
2022-11-20T08:04:12.569Z,84.85
2022-11-20T08:06:42.072Z,85.00
2022-11-20T08:09:11.890Z,85.13
2022-11-20T08:12:01.248Z,84.95
2022-11-20T08:14:31.350Z,84.87
2022-11-20T08:17:01.450Z,84.23
2022-11-20T08:19:31.098Z,83.56
2022-11-20T08:22:00.644Z,83.74
2022-11-20T08:24:30.399Z,83.61
2022-11-20T08:27:02.155Z,82.39
2022-11-20T08:29:31.733Z,82.54
2022-11-20T08:32:01.448Z,82.67
2022-11-20T08:34:31.006Z,82.67
2022-11-20T08:37:01.206Z,82.54
2022-11-20T08:39:30.800Z,82.31
2022-11-20T08:42:00.493Z,82.18
2022-11-20T08:44:31.467Z,82.27
2022-11-20T08:47:02.315Z,82.20
2022-11-20T08:49:32.012Z,81.72
2022-11-20T08:52:01.837Z,81.67
2022-11-20T08:54:31.479Z,81.84
2022-11-20T08:57:01.153Z,82.07
2022-11-20T09:00:03.997Z,81.72
2022-11-20T09:02:21.810Z,81.77
2022-11-20T09:04:51.525Z,81.40
2022-11-20T09:07:21.802Z,80.69
2022-11-20T09:10:16.507Z,80.50
2022-11-20T09:12:41.961Z,80.82
2022-11-20T09:15:13.535Z,80.67
2022-11-20T09:17:43.284Z,80.58
2022-11-20T09:20:12.979Z,80.02
2022-11-20T09:22:42.822Z,80.62
2022-11-20T09:25:12.319Z,79.95
2022-11-20T09:27:44.645Z,80.09
2022-11-20T09:30:16.279Z,79.82
2022-11-20T09:32:45.790Z,78.86
2022-11-20T09:35:15.582Z,78.47
2022-11-20T09:37:45.103Z,78.65
2022-11-20T09:40:21.139Z,77.90
2022-11-20T09:42:55.730Z,78.48
2022-11-20T09:45:32.415Z,78.26
2022-11-20T09:48:10.176Z,77.44
2022-11-20T09:50:45.409Z,77.34
2022-11-20T09:53:17.694Z,77.41
2022-11-20T09:55:47.922Z,76.89
2022-11-20T09:58:23.480Z,76.75
2022-11-20T10:00:57.508Z,75.59
2022-11-20T10:03:36.631Z,75.71
2022-11-20T10:06:08.198Z,75.29
2022-11-20T10:08:42.825Z,75.23
2022-11-20T10:11:17.166Z,75.14
2022-11-20T10:13:54.633Z,74.47
2022-11-20T10:16:28.729Z,74.16
2022-11-20T10:19:06.041Z,73.60
2022-11-20T10:21:41.917Z,73.91
2022-11-20T10:24:26.382Z,73.40
2022-11-20T10:26:59.956Z,74.02
2022-11-20T10:29:31.769Z,72.32
2022-11-20T10:32:05.423Z,71.88
2022-11-20T10:34:46.535Z,71.58
2022-11-20T10:37:18.234Z,71.66
2022-11-20T10:39:53.534Z,70.95
2022-11-20T10:42:27.280Z,70.89
2022-11-20T10:45:06.300Z,70.62
2022-11-20T10:47:38.092Z,69.93
2022-11-20T10:50:11.923Z,70.81
2022-11-20T10:52:47.758Z,70.40
2022-11-20T10:55:27.300Z,69.78
2022-11-20T10:58:03.283Z,69.74
2022-11-20T11:00:33.441Z,69.97
2022-11-20T11:03:04.508Z,70.29
2022-11-20T11:05:38.332Z,69.77
2022-11-20T11:08:12.149Z,69.03
2022-11-20T11:10:46.114Z,69.61
2022-11-20T11:13:23.964Z,69.85
2022-11-20T11:15:54.463Z,70.24
2022-11-20T11:18:29.447Z,69.71
2022-11-20T11:20:59.471Z,70.05
2022-11-20T11:23:32.998Z,69.84
2022-11-20T11:26:03.126Z,69.10
2022-11-20T11:28:32.863Z,69.32
2022-11-20T11:31:02.683Z,68.83
2022-11-20T11:33:35.492Z,68.43
2022-11-20T11:36:18.615Z,68.01
2022-11-20T11:38:48.134Z,68.35
2022-11-20T11:41:20.943Z,68.24
2022-11-20T11:44:11.387Z,68.64
2022-11-20T11:46:42.672Z,69.04
2022-11-20T11:49:19.174Z,67.80
2022-11-20T11:51:57.170Z,67.79
2022-11-20T11:54:28.638Z,67.29
2022-11-20T11:57:01.267Z,67.65
2022-11-20T11:59:35.985Z,68.23
2022-11-20T12:02:15.031Z,68.40
2022-11-20T12:04:48.401Z,67.55
2022-11-20T12:07:45.391Z,67.71
2022-11-20T12:10:16.706Z,67.39
2022-11-20T12:12:48.870Z,66.69
2022-11-20T12:15:25.019Z,67.10
2022-11-20T12:17:54.712Z,66.53
2022-11-20T12:20:28.200Z,67.46
2022-11-20T12:23:02.616Z,66.96
2022-11-20T12:25:34.468Z,66.01
2022-11-20T12:28:22.252Z,66.88
2022-11-20T12:30:55.558Z,66.49
2022-11-20T12:33:33.569Z,66.80
2022-11-20T12:36:09.527Z,67.18
2022-11-20T12:38:50.343Z,67.35
2022-11-20T12:41:39.979Z,67.76
2022-11-20T12:44:35.545Z,66.43
2022-11-20T12:47:13.558Z,66.91
2022-11-20T12:49:49.783Z,67.58
2022-11-20T12:52:27.485Z,66.64
2022-11-20T12:55:05.180Z,67.07
2022-11-20T12:57:39.258Z,66.59
2022-11-20T13:00:15.755Z,66.81
2022-11-20T13:02:56.479Z,66.97
2022-11-20T13:05:29.523Z,67.93
2022-11-20T13:08:02.552Z,68.29
2022-11-20T13:10:35.293Z,67.70
2022-11-20T13:13:11.760Z,67.83
2022-11-20T13:15:49.954Z,67.35
2022-11-20T13:18:27.604Z,67.47
2022-11-20T13:20:57.283Z,66.79
2022-11-20T13:23:28.856Z,66.40
2022-11-20T13:26:06.133Z,67.29
2022-11-20T13:28:36.643Z,67.44
2022-11-20T13:31:06.223Z,66.51
2022-11-20T13:33:37.217Z,67.67
2022-11-20T13:36:07.636Z,68.07
2022-11-20T13:38:46.207Z,67.43
2022-11-20T13:41:32.456Z,67.44
2022-11-20T13:44:09.170Z,67.66
2022-11-20T13:46:39.915Z,68.01
2022-11-20T13:49:10.786Z,68.80
2022-11-20T13:51:44.621Z,68.95
2022-11-20T13:54:30.866Z,69.71
2022-11-20T13:57:06.955Z,68.74
2022-11-20T13:59:42.489Z,69.37
2022-11-20T14:02:14.226Z,68.67
2022-11-20T14:04:45.522Z,68.95
2022-11-20T14:07:15.260Z,69.65
2022-11-20T14:09:54.037Z,69.20
2022-11-20T14:12:29.567Z,69.26
2022-11-20T14:14:59.994Z,69.61
2022-11-20T14:17:32.801Z,69.99
2022-11-20T14:20:04.168Z,70.75
2022-11-20T14:22:33.930Z,70.86
2022-11-20T14:25:07.492Z,70.58
2022-11-20T14:27:38.515Z,70.96
2022-11-20T14:30:14.946Z,71.02
2022-11-20T14:32:46.117Z,71.06
2022-11-20T14:35:19.981Z,71.58
2022-11-20T14:37:50.004Z,72.10
2022-11-20T14:40:31.512Z,72.48
2022-11-20T14:43:01.396Z,72.74
2022-11-20T14:45:31.011Z,72.17
2022-11-20T14:48:01.737Z,72.58
2022-11-20T14:50:31.575Z,72.92
2022-11-20T14:53:01.924Z,73.03
2022-11-20T14:55:33.877Z,73.09
2022-11-20T14:58:04.498Z,73.85
2022-11-20T15:00:34.822Z,74.00
2022-11-20T15:03:04.697Z,73.98
2022-11-20T15:05:47.065Z,74.51
2022-11-20T15:08:17.247Z,74.73
2022-11-20T15:10:52.131Z,74.91
2022-11-20T15:13:26.770Z,75.05
2022-11-20T15:15:57.944Z,75.44
2022-11-20T15:18:30.284Z,76.06
2022-11-20T15:21:00.761Z,75.98
2022-11-20T15:23:31.900Z,76.20
2022-11-20T15:26:02.915Z,76.36
2022-11-20T15:28:33.845Z,76.54
2022-11-20T15:31:04.162Z,76.66
2022-11-20T15:33:34.032Z,77.19
2022-11-20T15:36:03.995Z,77.27
2022-11-20T15:38:33.522Z,77.15
2022-11-20T15:41:05.425Z,77.36
2022-11-20T15:43:35.033Z,77.61
2022-11-20T15:46:06.090Z,77.54
2022-11-20T15:48:42.003Z,78.12
2022-11-20T15:51:22.857Z,79.11
2022-11-20T15:53:52.370Z,79.78
2022-11-20T15:56:23.336Z,82.42
2022-11-20T15:58:52.847Z,83.79
2022-11-20T16:01:23.232Z,85.47
2022-11-20T16:03:52.968Z,86.64
2022-11-20T16:06:22.665Z,87.79
2022-11-20T16:08:52.186Z,88.42
2022-11-20T16:11:23.222Z,89.43
2022-11-20T16:14:10.860Z,90.74
2022-11-20T16:16:42.409Z,92.57
2022-11-20T16:19:12.594Z,92.53
2022-11-20T16:21:42.578Z,93.30
2022-11-20T16:24:13.794Z,93.59
2022-11-20T16:26:44.880Z,94.40
2022-11-20T16:29:15.852Z,94.75
2022-11-20T16:31:45.402Z,95.12
2022-11-20T16:34:17.666Z,95.42
2022-11-20T16:36:48.051Z,95.96
2022-11-20T16:39:23.040Z,96.05
2022-11-20T16:41:54.760Z,96.42
2022-11-20T16:44:24.633Z,95.60
2022-11-20T16:46:54.735Z,96.69
2022-11-20T16:49:25.006Z,96.43
2022-11-20T16:51:55.149Z,95.45
2022-11-20T16:54:25.035Z,95.99
2022-11-20T16:56:56.112Z,96.05
2022-11-20T16:59:25.897Z,95.06
2022-11-20T17:01:55.696Z,95.21
2022-11-20T17:04:25.907Z,95.05
2022-11-20T17:06:55.772Z,94.04
2022-11-20T17:09:25.255Z,92.84
2022-11-20T17:11:57.791Z,93.15
2022-11-20T17:14:27.757Z,93.68
2022-11-20T17:16:58.042Z,93.71
2022-11-20T17:19:27.768Z,94.39
2022-11-20T17:21:57.456Z,94.45
2022-11-20T17:24:31.568Z,94.98
2022-11-20T17:27:03.103Z,94.56
2022-11-20T17:29:34.601Z,94.03
2022-11-20T17:32:06.661Z,93.94
2022-11-20T17:34:36.576Z,93.22
2022-11-20T17:37:06.957Z,93.35
2022-11-20T17:39:36.899Z,92.54
2022-11-20T17:42:25.475Z,92.48
2022-11-20T17:44:55.298Z,91.43
2022-11-20T17:47:25.022Z,91.37
2022-11-20T17:49:55.639Z,91.57
2022-11-20T17:52:25.424Z,91.23
2022-11-20T17:54:56.236Z,90.94
2022-11-20T17:57:45.292Z,90.69
2022-11-20T18:00:17.387Z,90.16
2022-11-20T18:02:47.643Z,90.27
2022-11-20T18:05:18.658Z,90.53
2022-11-20T18:07:48.569Z,90.64
2022-11-20T18:10:18.301Z,90.18
2022-11-20T18:12:49.562Z,89.56
2022-11-20T18:15:19.328Z,89.94
2022-11-20T18:17:49.309Z,90.29
2022-11-20T18:20:39.647Z,89.38
2022-11-20T18:23:09.223Z,89.43
2022-11-20T18:25:40.008Z,89.84
2022-11-20T18:28:10.972Z,88.94
2022-11-20T18:30:40.700Z,89.40
2022-11-20T18:33:10.430Z,88.97
2022-11-20T18:35:43.044Z,89.26
2022-11-20T18:38:12.627Z,89.39
2022-11-20T18:40:42.226Z,89.28
2022-11-20T18:43:31.077Z,88.90
2022-11-20T18:46:04.169Z,89.07
2022-11-20T18:48:33.704Z,88.78
2022-11-20T18:51:06.807Z,89.50
2022-11-20T18:53:37.036Z,89.51
2022-11-20T18:56:07.368Z,89.30
2022-11-20T18:58:39.336Z,89.36
2022-11-20T19:01:09.687Z,89.40
2022-11-20T19:03:39.236Z,90.22
2022-11-20T19:06:13.535Z,90.17
2022-11-20T19:08:43.447Z,89.21
2022-11-20T19:11:13.667Z,88.46
2022-11-20T19:13:45.402Z,88.53
2022-11-20T19:16:16.238Z,88.33
2022-11-20T19:18:45.934Z,88.29
2022-11-20T19:21:16.331Z,87.58
2022-11-20T19:23:48.732Z,87.20
2022-11-20T19:26:19.137Z,87.27
2022-11-20T19:28:50.138Z,86.63
2022-11-20T19:31:24.455Z,86.35
2022-11-20T19:33:55.004Z,86.30
2022-11-20T19:36:25.421Z,86.28
2022-11-20T19:38:55.473Z,86.31
2022-11-20T19:41:29.053Z,85.98
2022-11-20T19:44:00.870Z,85.99
2022-11-20T19:46:31.187Z,86.24
2022-11-20T19:49:00.913Z,86.10
2022-11-20T19:51:31.433Z,86.37
2022-11-20T19:54:01.574Z,86.93
2022-11-20T19:56:31.749Z,86.75
2022-11-20T19:59:02.897Z,87.27
2022-11-20T20:01:33.100Z,86.71
2022-11-20T20:04:05.144Z,85.91
2022-11-20T20:06:35.921Z,86.40
2022-11-20T20:09:06.624Z,86.54
2022-11-20T20:11:36.764Z,86.00
2022-11-20T20:14:08.789Z,86.05
2022-11-20T20:16:38.894Z,85.86
2022-11-20T20:19:08.492Z,87.29
2022-11-20T20:21:38.234Z,87.37
2022-11-20T20:24:08.731Z,86.80
2022-11-20T20:26:38.357Z,88.03
2022-11-20T20:29:09.428Z,89.16
2022-11-20T20:31:38.980Z,89.12
2022-11-20T20:34:08.597Z,89.78
2022-11-20T20:36:38.200Z,89.91
2022-11-20T20:39:07.947Z,89.92
2022-11-20T20:41:37.468Z,90.19
2022-11-20T20:44:26.498Z,90.12
2022-11-20T20:46:57.687Z,90.39
2022-11-20T20:49:27.223Z,90.29
2022-11-20T20:51:57.025Z,90.60
2022-11-20T20:54:30.238Z,90.74
2022-11-20T20:57:02.715Z,90.44
2022-11-20T20:59:32.305Z,90.84
2022-11-20T21:02:03.304Z,91.46
2022-11-20T21:04:33.899Z,91.04
2022-11-20T21:07:03.573Z,90.59
2022-11-20T21:09:33.269Z,90.84
2022-11-20T21:12:03.333Z,91.13
2022-11-20T21:14:33.602Z,91.56
2022-11-20T21:17:04.916Z,91.34
2022-11-20T21:19:34.459Z,91.57
2022-11-20T21:22:03.795Z,92.52
2022-11-20T21:24:34.040Z,92.87
2022-11-20T21:27:04.927Z,93.81
2022-11-20T21:29:34.504Z,94.18
2022-11-20T21:32:05.829Z,93.78
2022-11-20T21:34:35.417Z,93.96
2022-11-20T21:37:05.803Z,94.16
2022-11-20T21:39:50.625Z,94.09
2022-11-20T21:42:20.264Z,93.76
2022-11-20T21:44:49.801Z,93.96
2022-11-20T21:47:20.693Z,93.54
2022-11-20T21:49:50.422Z,93.18
2022-11-20T21:52:20.266Z,93.08
2022-11-20T21:54:50.133Z,93.16
2022-11-20T21:57:19.659Z,92.81
2022-11-20T21:59:49.179Z,92.46
2022-11-20T22:02:20.080Z,92.16
2022-11-20T22:04:50.017Z,91.98
2022-11-20T22:07:19.607Z,91.59
2022-11-20T22:09:49.244Z,91.59
2022-11-20T22:12:19.517Z,91.85
2022-11-20T22:14:49.021Z,91.98
2022-11-20T22:17:40.584Z,91.72
2022-11-20T22:20:11.007Z,91.70
2022-11-20T22:22:41.248Z,91.02
2022-11-20T22:25:10.930Z,91.15
2022-11-20T22:27:40.488Z,90.76
2022-11-20T22:30:10.817Z,91.20
2022-11-20T22:32:41.748Z,90.69
2022-11-20T22:35:11.279Z,89.86
2022-11-20T22:37:40.815Z,90.33
2022-11-20T22:40:10.883Z,90.18
2022-11-20T22:42:40.399Z,90.56
2022-11-20T22:45:10.369Z,89.85
2022-11-20T22:47:41.452Z,89.18
2022-11-20T22:50:11.521Z,89.44
2022-11-20T22:52:41.105Z,89.89
2022-11-20T22:55:15.064Z,89.82
2022-11-20T22:57:45.896Z,89.63
2022-11-20T23:00:16.000Z,89.36
2022-11-20T23:02:47.616Z,88.20
2022-11-20T23:05:17.132Z,87.77
2022-11-20T23:07:46.714Z,87.82
2022-11-20T23:10:16.306Z,88.69
2022-11-20T23:12:46.449Z,88.33
2022-11-20T23:15:16.327Z,88.52
2022-11-20T23:17:47.384Z,89.00
2022-11-20T23:20:16.939Z,88.62
2022-11-20T23:22:46.919Z,88.58
2022-11-20T23:25:16.541Z,86.87
2022-11-20T23:27:46.043Z,86.60
2022-11-20T23:30:15.945Z,86.72
2022-11-20T23:32:45.435Z,87.10
2022-11-20T23:35:16.487Z,85.07
2022-11-20T23:37:46.073Z,84.33
2022-11-20T23:40:15.920Z,84.13
2022-11-20T23:42:59.239Z,82.99
2022-11-20T23:45:28.827Z,84.04
2022-11-20T23:47:58.302Z,84.28
2022-11-20T23:50:29.164Z,83.59
2022-11-20T23:52:58.658Z,84.39
2022-11-20T23:55:28.626Z,84.83
2022-11-20T23:57:58.361Z,85.16
